Clay City, Indiana
Current Conditions -  °F | °C
As of 12:53 PM on Monday 26 Jan 2015 (Local Time) from KHUF Reporting Station
Overcast Overcast  
Wind Chill: 22°   Ceiling: 1800
Heat Index: 29°   Visibility: 10mi
Dew Point: 21°   Wind: 7mph
Humidity: 72%   Direction: 290°WNW
Pressure: 29.95"   Gusts: NA
Location:  39.28°N, 87.11°W
Report Text: KHUF 261753Z 29006KT 10SM OVC018 M02/M06 A2995 RMK AO2 SLP150 T10171061 11017 21033 58010
Loading
Personal Weather Stations






























Interactive Weather Map New forecast layout! Learn more

10-Day Weather Forecast

Advertisements
Track Severe Weather on mobile